Time;durP1;ratioP1;P1;durP2;ratioP2;P2;SDS_P1;SDS_P2;PMS_P1;PMS_P2;Temp;Humidity;BMP_temperature;BMP_pressure;BME280_temperature;BME280_humidity;BME280_pressure;Samples;Min_cycle;Max_cycle;Signal;HPM_P1;HPM_P2
2022/04/25 00:00:35;;;;;;;9.73;7.13;;;10.50;99.90;;;;;;4999535;28;20204;-73
2022/04/25 00:03:04;;;;;;;8.73;6.33;;;10.60;99.90;;;;;;5005794;28;20235;-73
2022/04/25 00:05:31;;;;;;;8.33;6.53;;;10.60;99.90;;;;;;5009215;28;20705;-72
2022/04/25 00:07:58;;;;;;;10.00;5.87;;;10.40;99.90;;;;;;5010066;28;20196;-71
2022/04/25 00:10:25;;;;;;;9.40;6.00;;;10.40;99.90;;;;;;5009357;28;20200;-72
2022/04/25 00:12:52;;;;;;;7.60;5.37;;;10.40;99.90;;;;;;5010283;28;20247;-74
2022/04/25 00:15:19;;;;;;;8.40;5.73;;;10.50;99.90;;;;;;5009837;28;20262;-70
2022/04/25 00:17:46;;;;;;;12.80;5.83;;;10.50;99.90;;;;;;5002190;28;20204;-70
2022/04/25 00:20:14;;;;;;;7.70;5.67;;;10.50;99.90;;;;;;5009502;28;20207;-70
2022/04/25 00:22:41;;;;;;;7.53;5.43;;;10.50;99.90;;;;;;4999781;28;20204;-71
2022/04/25 00:25:09;;;;;;;6.17;5.53;;;10.30;99.90;;;;;;5004541;28;20220;-71
2022/04/25 00:27:36;;;;;;;6.13;5.30;;;10.20;99.90;;;;;;5014484;28;20270;-71
2022/04/25 00:30:04;;;;;;;6.37;5.57;;;10.40;99.90;;;;;;5014455;28;20208;-71
2022/04/25 00:32:31;;;;;;;6.43;5.83;;;10.40;99.90;;;;;;5013413;28;20215;-72
2022/04/25 00:34:58;;;;;;;7.37;5.37;;;10.30;99.90;;;;;;5004694;28;20274;-71
2022/04/25 00:37:26;;;;;;;6.73;5.67;;;10.50;99.90;;;;;;5001790;28;20232;-73
2022/04/25 00:39:53;;;;;;;8.37;4.50;;;10.40;99.90;;;;;;5013207;28;20263;-74
2022/04/25 00:42:21;;;;;;;10.80;6.77;;;10.30;99.90;;;;;;5013598;28;20656;-72
2022/04/25 00:44:48;;;;;;;7.03;5.00;;;10.30;99.90;;;;;;5013623;28;20250;-80
2022/04/25 00:47:16;;;;;;;7.60;4.67;;;10.20;99.90;;;;;;5013462;28;20270;-73
2022/04/25 00:49:43;;;;;;;5.83;4.80;;;10.10;99.90;;;;;;5013279;28;20208;-76
2022/04/25 00:52:10;;;;;;;10.73;7.10;;;10.20;99.90;;;;;;5005282;28;20211;-73
2022/04/25 00:54:38;;;;;;;6.87;5.50;;;10.10;99.90;;;;;;5013724;28;20212;-73
2022/04/25 00:57:06;;;;;;;7.53;5.87;;;9.90;99.90;;;;;;5006018;28;20215;-73
2022/04/25 00:59:33;;;;;;;6.40;5.00;;;10.10;99.90;;;;;;5005905;28;20231;-79
2022/04/25 01:02:00;;;;;;;7.97;6.20;;;10.10;99.90;;;;;;5005082;28;20210;-72
2022/04/25 01:04:28;;;;;;;7.30;4.93;;;9.90;99.90;;;;;;5012613;28;20216;-72
2022/04/25 01:06:54;;;;;;;4.80;4.40;;;9.80;99.90;;;;;;5012777;28;20232;-73
2022/04/25 01:09:21;;;;;;;6.40;5.07;;;9.70;99.90;;;;;;5013004;28;20251;-73
2022/04/25 01:11:50;;;;;;;6.20;4.57;;;9.70;99.90;;;;;;5013508;28;20250;-72
2022/04/25 01:14:18;;;;;;;8.13;5.07;;;10.00;99.90;;;;;;5013269;28;20196;-72
2022/04/25 01:16:47;;;;;;;6.67;5.07;;;9.90;99.90;;;;;;5006294;28;20258;-73
2022/04/25 01:19:14;;;;;;;8.07;4.13;;;10.00;99.90;;;;;;5009820;28;20263;-72
2022/04/25 01:21:44;;;;;;;10.23;4.83;;;10.40;99.90;;;;;;5008107;28;20200;-71
2022/04/25 01:29:41;;;;;;;7.50;5.13;;;9.90;99.90;;;;;;5007059;28;20235;-74
2022/04/25 01:32:09;;;;;;;5.83;4.93;;;10.00;99.90;;;;;;5003734;28;20293;-73
2022/04/25 01:34:38;;;;;;;5.43;4.77;;;10.00;99.90;;;;;;5005928;28;20204;-72
2022/04/25 01:37:09;;;;;;;9.20;6.43;;;9.90;99.90;;;;;;5012517;28;20204;-75
2022/04/25 01:39:39;;;;;;;10.63;5.53;;;9.90;99.90;;;;;;5005712;28;20251;-73
2022/04/25 01:42:08;;;;;;;6.97;5.00;;;9.80;99.90;;;;;;5012601;28;20255;-72
2022/04/25 01:44:36;;;;;;;7.57;5.53;;;9.40;99.90;;;;;;5012994;28;20554;-73
2022/04/25 01:47:04;;;;;;;8.33;6.23;;;11.90;99.90;;;;;;5012875;28;20228;-72
2022/04/25 01:49:33;;;;;;;6.33;4.90;;;9.40;99.90;;;;;;5011918;28;20208;-72
2022/04/25 01:52:03;;;;;;;6.20;4.90;;;9.60;99.90;;;;;;5004646;28;20255;-73
2022/04/25 01:54:32;;;;;;;12.63;6.57;;;9.60;99.90;;;;;;5011738;28;20208;-75
2022/04/25 01:57:01;;;;;;;8.83;6.73;;;9.60;99.90;;;;;;5012700;28;20252;-78
2022/04/25 01:59:30;;;;;;;8.07;7.27;;;9.60;99.90;;;;;;5010326;28;20207;-74
2022/04/25 02:01:57;;;;;;;7.43;6.63;;;9.60;99.90;;;;;;5006930;28;20291;-75
2022/04/25 02:04:24;;;;;;;7.40;6.67;;;9.60;99.90;;;;;;5002428;28;20251;-76
2022/04/25 02:06:51;;;;;;;8.97;6.73;;;9.60;99.90;;;;;;5004947;28;20228;-73
2022/04/25 02:09:20;;;;;;;6.10;5.50;;;9.60;99.90;;;;;;5003794;28;20224;-73
2022/04/25 02:11:47;;;;;;;8.70;6.50;;;9.60;99.90;;;;;;5004490;28;20737;-74
2022/04/25 02:14:16;;;;;;;8.53;5.73;;;9.40;99.90;;;;;;5011770;28;20215;-73
2022/04/25 02:16:44;;;;;;;5.77;4.93;;;8.80;68.20;;;;;;5011500;28;20208;-72
2022/04/25 02:19:11;;;;;;;9.33;5.83;;;9.40;99.90;;;;;;5011728;28;20295;-74
2022/04/25 02:21:38;;;;;;;9.03;5.87;;;9.10;99.90;;;;;;5011875;28;20208;-72
2022/04/25 02:24:06;;;;;;;7.27;5.87;;;9.10;99.90;;;;;;5012231;28;20201;-75
2022/04/25 02:26:33;;;;;;;8.47;6.73;;;9.10;99.90;;;;;;5011884;28;20587;-74
2022/04/25 02:29:00;;;;;;;8.33;6.10;;;9.10;99.90;;;;;;5011839;28;20200;-72
2022/04/25 02:31:28;;;;;;;8.40;7.07;;;9.10;99.90;;;;;;5011298;28;20251;-70
2022/04/25 02:33:55;;;;;;;8.00;6.03;;;9.20;99.90;;;;;;5003723;28;20246;-72
2022/04/25 02:36:23;;;;;;;7.47;6.60;;;9.40;99.90;;;;;;5011362;28;20220;-72
2022/04/25 02:38:51;;;;;;;8.63;5.20;;;9.40;99.90;;;;;;5009192;28;20200;-77
2022/04/25 02:41:18;;;;;;;7.13;5.50;;;9.30;99.90;;;;;;5000205;28;20201;-82
2022/04/25 02:43:45;;;;;;;6.53;4.90;;;9.40;99.90;;;;;;5009372;28;20204;-75
2022/04/25 02:46:13;;;;;;;7.43;5.53;;;9.30;99.90;;;;;;5010867;28;20227;-72
2022/04/25 02:48:44;;;;;;;9.63;6.80;;;9.30;99.90;;;;;;5010028;28;20208;-74
2022/04/25 02:51:12;;;;;;;7.17;5.53;;;9.40;99.90;;;;;;4999968;28;20816;-72
2022/04/25 02:53:39;;;;;;;7.33;5.23;;;9.30;99.90;;;;;;5008057;28;20200;-71
2022/04/25 02:56:07;;;;;;;5.10;4.60;;;9.20;99.90;;;;;;5004071;28;20259;-71
2022/04/25 02:58:35;;;;;;;5.67;5.07;;;9.20;99.90;;;;;;5011675;28;20208;-71
2022/04/25 03:01:05;;;;;;;6.97;6.27;;;9.20;99.90;;;;;;5011078;28;20208;-71
2022/04/25 03:03:33;;;;;;;7.30;6.40;;;9.10;99.90;;;;;;5011331;28;20213;-71
2022/04/25 03:06:02;;;;;;;8.13;5.70;;;9.30;1.00;;;;;;5002715;28;20319;-71
2022/04/25 03:08:29;;;;;;;9.37;6.30;;;9.40;99.90;;;;;;5004942;28;20215;-74
2022/04/25 03:10:57;;;;;;;11.30;6.13;;;9.50;99.90;;;;;;5009107;28;20212;-85
2022/04/25 03:13:25;;;;;;;7.87;6.13;;;9.30;99.90;;;;;;5010712;28;20204;-71
2022/04/25 03:15:53;;;;;;;7.80;6.13;;;9.10;99.90;;;;;;5010612;28;20219;-71
2022/04/25 03:18:22;;;;;;;6.37;5.67;;;9.10;99.90;;;;;;5010583;28;20204;-74
2022/04/25 03:20:51;;;;;;;7.83;6.87;;;9.00;99.90;;;;;;5010805;28;20642;-75
2022/04/25 03:23:20;;;;;;;7.53;6.73;;;9.10;99.90;;;;;;5010715;28;20204;-73
2022/04/25 03:25:47;;;;;;;8.47;6.60;;;9.10;99.90;;;;;;5003188;28;20669;-73
2022/04/25 03:28:15;;;;;;;7.73;7.03;;;9.00;99.90;;;;;;4998469;28;20260;-70
2022/04/25 03:30:42;;;;;;;7.23;6.53;;;9.00;99.90;;;;;;5010671;28;20254;-72
2022/04/25 03:33:11;;;;;;;9.37;6.07;;;9.00;99.90;;;;;;5010143;28;20259;-71
2022/04/25 03:35:38;;;;;;;9.50;7.40;;;9.00;99.90;;;;;;5010439;28;20643;-72
2022/04/25 03:38:06;;;;;;;9.90;7.43;;;8.70;99.90;;;;;;5010504;28;20262;-73
2022/04/25 03:40:35;;;;;;;8.50;6.80;;;8.80;99.90;;;;;;5010836;28;20239;-72
2022/04/25 03:43:02;;;;;;;8.80;6.93;;;8.70;99.90;;;;;;5009498;28;20195;-71
2022/04/25 03:45:30;;;;;;;7.27;6.23;;;8.80;99.90;;;;;;4998972;28;20204;-72
2022/04/25 03:47:57;;;;;;;8.73;7.13;;;9.00;99.90;;;;;;5007484;28;20278;-72
2022/04/25 03:50:24;;;;;;;8.33;6.33;;;9.10;99.90;;;;;;4999158;28;20739;-74
2022/04/25 03:52:51;;;;;;;8.43;6.97;;;9.10;99.90;;;;;;5006686;28;20222;-74
2022/04/25 03:58:06;;;;;;;9.30;5.83;;;9.10;99.90;;;;;;5002771;28;20207;-71
2022/04/25 04:00:34;;;;;;;7.77;5.77;;;9.30;99.90;;;;;;5010836;28;20236;-72
2022/04/25 04:03:01;;;;;;;6.40;5.67;;;9.40;99.90;;;;;;5010495;28;20216;-73
2022/04/25 04:05:28;;;;;;;8.93;6.67;;;9.30;99.90;;;;;;5009931;28;20691;-73
2022/04/25 04:07:55;;;;;;;6.80;6.10;;;9.30;99.90;;;;;;5010454;28;20286;-73
2022/04/25 04:10:23;;;;;;;10.30;6.00;;;9.30;99.90;;;;;;5001929;28;20212;-74
2022/04/25 04:12:50;;;;;;;7.63;6.00;;;9.50;99.90;;;;;;5010370;28;20204;-76
2022/04/25 04:15:18;;;;;;;7.17;5.50;;;9.50;99.90;;;;;;5001647;28;20207;-77
2022/04/25 04:17:45;;;;;;;7.50;6.20;;;9.60;99.90;;;;;;5010408;28;20204;-77
2022/04/25 04:20:14;;;;;;;8.47;6.40;;;9.60;99.90;;;;;;5001704;28;20584;-75
2022/04/25 04:22:41;;;;;;;8.60;5.87;;;9.70;99.90;;;;;;5010214;28;20204;-78
2022/04/25 04:25:11;;;;;;;14.30;7.37;;;9.80;99.90;;;;;;5009951;28;20270;-72
2022/04/25 04:27:39;;;;;;;7.03;6.13;;;10.00;99.90;;;;;;5010140;28;20681;-74
2022/04/25 04:30:08;;;;;;;7.30;5.67;;;9.90;99.90;;;;;;5010487;28;20201;-71
2022/04/25 04:32:38;;;;;;;9.53;5.93;;;10.00;1.00;;;;;;5002634;28;20269;-72
2022/04/25 04:35:09;;;;;;;7.90;6.20;;;10.00;99.90;;;;;;5010294;28;20287;-76
2022/04/25 04:37:37;;;;;;;11.07;7.20;;;10.10;99.90;;;;;;5002945;28;20288;-72
2022/04/25 04:42:50;;;;;;;7.13;6.23;;;10.20;99.90;;;;;;5003951;28;20624;-72
2022/04/25 04:45:17;;;;;;;12.20;6.60;;;10.30;99.90;;;;;;5008830;28;20204;-75
2022/04/25 04:47:45;;;;;;;8.70;6.30;;;10.30;99.90;;;;;;5009863;28;20224;-72
2022/04/25 04:50:15;;;;;;;8.37;7.00;;;10.40;99.90;;;;;;5009009;28;20684;-72
2022/04/25 04:52:44;;;;;;;11.87;7.43;;;10.40;99.90;;;;;;5002727;28;20215;-72
2022/04/25 04:55:11;;;;;;;8.43;6.70;;;10.40;99.90;;;;;;5009131;28;20754;-71
2022/04/25 04:57:39;;;;;;;11.67;7.37;;;10.30;99.90;;;;;;5009602;28;20208;-72
2022/04/25 05:00:08;;;;;;;9.73;6.90;;;10.40;99.90;;;;;;5009941;28;20287;-73
2022/04/25 05:02:36;;;;;;;16.23;8.40;;;10.40;99.90;;;;;;5009972;28;20680;-70
2022/04/25 05:05:05;;;;;;;12.37;7.60;;;10.40;99.90;;;;;;5003782;28;20595;-70
2022/04/25 05:07:32;;;;;;;11.83;7.50;;;10.40;99.90;;;;;;5000094;28;20232;-72
2022/04/25 05:09:59;;;;;;;8.40;6.43;;;10.30;99.90;;;;;;5009869;28;20200;-74
2022/04/25 05:12:27;;;;;;;12.50;8.87;;;10.30;99.90;;;;;;5011099;28;21124;-71
2022/04/25 05:14:55;;;;;;;12.20;9.23;;;10.40;99.90;;;;;;5013187;28;20676;-71
2022/04/25 05:17:22;;;;;;;11.97;8.00;;;10.40;99.90;;;;;;5012596;28;20211;-71
2022/04/25 05:19:49;;;;;;;15.60;9.40;;;10.40;99.90;;;;;;5005872;28;20204;-72
2022/04/25 05:22:18;;;;;;;11.27;8.40;;;10.40;99.90;;;;;;5004651;28;20251;-71
2022/04/25 05:24:45;;;;;;;12.27;8.53;;;10.30;99.90;;;;;;5012581;28;20625;-71
2022/04/25 05:27:12;;;;;;;12.60;8.87;;;10.40;99.90;;;;;;5012443;28;20228;-73
2022/04/25 05:29:39;;;;;;;10.83;8.10;;;10.50;99.90;;;;;;5012636;28;20263;-72
2022/04/25 05:32:07;;;;;;;15.17;9.60;;;10.50;99.90;;;;;;5013176;28;20205;-71
2022/04/25 05:34:34;;;;;;;14.73;9.13;;;10.50;99.90;;;;;;5012767;28;20258;-73
2022/04/25 05:37:01;;;;;;;13.23;8.93;;;10.50;99.90;;;;;;5005037;28;20598;-73
2022/04/25 05:39:30;;;;;;;15.67;9.87;;;10.60;99.90;;;;;;5012169;28;20208;-72
2022/04/25 05:41:57;;;;;;;15.27;9.73;;;10.70;99.90;;;;;;5012540;28;20205;-72
2022/04/25 05:44:24;;;;;;;15.90;9.90;;;10.60;99.90;;;;;;5012414;28;20282;-74
2022/04/25 05:46:52;;;;;;;14.90;10.97;;;10.60;99.90;;;;;;5012662;28;20224;-72
2022/04/25 05:52:05;;;;;;;15.33;8.87;;;10.70;99.90;;;;;;5006413;28;20273;-74
2022/04/25 05:54:34;;;;;;;12.93;9.10;;;10.70;99.90;;;;;;5012186;28;20304;-70
2022/04/25 05:57:01;;;;;;;14.83;9.10;;;10.70;99.90;;;;;;5012698;28;20204;-72
2022/04/25 05:59:29;;;;;;;11.13;8.13;;;10.70;99.90;;;;;;5007976;28;20209;-71
2022/04/25 06:01:57;;;;;;;14.37;10.00;;;10.70;99.90;;;;;;5006706;28;20218;-72
2022/04/25 06:04:24;;;;;;;18.73;9.77;;;10.80;99.90;;;;;;5006088;28;20286;-71
2022/04/25 06:06:51;;;;;;;15.77;9.93;;;10.90;99.90;;;;;;5007029;28;20266;-72
2022/04/25 06:09:19;;;;;;;13.57;9.97;;;10.90;99.90;;;;;;5011404;28;20214;-70
2022/04/25 06:11:49;;;;;;;15.23;9.57;;;10.90;99.90;;;;;;5011936;28;20208;-72
2022/04/25 06:14:16;;;;;;;15.90;9.67;;;11.00;99.90;;;;;;5010804;28;20231;-70
2022/04/25 06:16:43;;;;;;;21.10;10.73;;;11.00;99.90;;;;;;5011672;28;20208;-72
2022/04/25 06:19:11;;;;;;;17.70;10.60;;;11.20;99.90;;;;;;5011696;28;20246;-70
2022/04/25 06:21:38;;;;;;;15.13;10.17;;;11.20;99.90;;;;;;5003106;28;20209;-71
2022/04/25 06:24:05;;;;;;;13.97;8.97;;;11.20;99.90;;;;;;4998267;28;20250;-73
2022/04/25 06:26:34;;;;;;;16.53;9.83;;;11.30;99.90;;;;;;5007880;28;20208;-72
2022/04/25 06:29:03;;;;;;;12.73;9.50;;;11.50;99.90;;;;;;5005649;28;20658;-71
2022/04/25 06:31:30;;;;;;;12.50;9.10;;;11.60;99.90;;;;;;5009895;28;20687;-71
2022/04/25 06:33:58;;;;;;;19.70;9.37;;;11.60;99.90;;;;;;5008505;28;20274;-78
2022/04/25 06:36:25;;;;;;;11.77;7.70;;;11.60;99.90;;;;;;5011277;28;20251;-70
2022/04/25 06:38:52;;;;;;;17.10;9.10;;;11.60;99.90;;;;;;5003987;28;20595;-70
2022/04/25 06:41:21;;;;;;;22.83;9.43;;;11.80;99.90;;;;;;5011132;28;20208;-80
2022/04/25 06:43:48;;;;;;;11.87;8.80;;;11.80;99.90;;;;;;5009264;28;20212;-73
2022/04/25 06:46:16;;;;;;;12.33;9.60;;;11.70;99.90;;;;;;5003140;28;20247;-70
2022/04/25 06:49:19;;;;;;;12.60;7.93;;;11.60;99.90;;;;;;5002432;28;20248;-72
2022/04/25 06:51:31;;;;;;;12.20;6.90;;;11.70;99.90;;;;;;5004392;28;20422;-70
2022/04/25 06:54:00;;;;;;;16.23;7.90;;;11.60;99.90;;;;;;5008585;28;20243;-76
2022/04/25 06:56:27;;;;;;;12.00;8.13;;;11.70;99.90;;;;;;5005690;28;20220;-77
2022/04/25 06:58:54;;;;;;;9.23;7.97;;;11.90;99.90;;;;;;5011546;28;20200;-78
2022/04/25 07:01:22;;;;;;;13.43;7.73;;;12.00;99.90;;;;;;5007497;28;20204;-71
2022/04/25 07:03:49;;;;;;;13.47;8.37;;;12.00;99.90;;;;;;5010254;28;20262;-70
2022/04/25 07:06:16;;;;;;;20.00;8.87;;;12.00;99.90;;;;;;5009190;28;20278;-74
2022/04/25 07:08:43;;;;;;;12.53;9.47;;;12.20;99.90;;;;;;5005915;28;20236;-73
2022/04/25 07:11:10;;;;;;;12.67;9.27;;;12.30;99.90;;;;;;5004067;28;20216;-80
2022/04/25 07:13:41;;;;;;;13.40;8.02;;;12.40;99.90;;;;;;5006517;28;20197;-77
2022/04/25 07:16:09;;;;;;;17.25;8.10;;;12.80;99.90;;;;;;5009426;28;20207;-77
2022/04/25 07:18:38;;;;;;;9.15;8.32;;;12.50;99.90;;;;;;5011166;28;20216;-85
2022/04/25 07:28:48;;;;;;;13.98;8.18;;;12.80;99.90;;;;;;5002986;28;20272;-82
2022/04/25 07:29:23;;;;;;;13.27;7.40;;;13.30;99.90;;;;;;5002718;28;20215;-79
2022/04/25 07:31:51;;;;;;;11.73;7.00;;;13.40;99.90;;;;;;5010703;28;20211;-78
2022/04/25 07:34:19;;;;;;;9.90;6.28;;;14.00;99.90;;;;;;5009629;28;20299;-76
2022/04/25 07:36:51;;;;;;;9.90;6.18;;;14.20;99.90;;;;;;5002323;28;20211;-78
2022/04/25 07:39:19;;;;;;;8.32;5.30;;;13.60;99.90;;;;;;5004581;28;20223;-89
2022/04/25 07:41:46;;;;;;;8.57;5.95;;;13.30;99.90;;;;;;5007329;28;20208;-83
2022/04/25 07:44:13;;;;;;;8.07;6.07;;;13.20;1.00;;;;;;5002076;28;20201;-83
2022/04/25 07:46:41;;;;;;;10.90;6.32;;;12.70;1.00;;;;;;5008754;28;20238;-82
2022/04/25 07:49:09;;;;;;;10.13;6.65;;;14.40;99.90;;;;;;5008253;28;20607;-70
2022/04/25 07:51:37;;;;;;;8.07;5.63;;;14.10;99.90;;;;;;5010760;28;20204;-70
2022/04/25 07:54:05;;;;;;;8.30;5.47;;;14.20;99.90;;;;;;4998862;28;20267;-80
2022/04/25 07:56:32;;;;;;;11.65;5.70;;;13.90;99.90;;;;;;5008797;28;20208;-80
2022/04/25 07:59:00;;;;;;;14.52;7.93;;;15.00;99.90;;;;;;5009961;28;20196;-79
2022/04/25 08:01:28;;;;;;;9.68;4.85;;;13.20;99.90;;;;;;5009653;28;20219;-77
2022/04/25 08:03:55;;;;;;;8.77;5.13;;;16.10;99.90;;;;;;5010829;28;20231;-70
2022/04/25 08:06:22;;;;;;;6.03;5.32;;;13.70;99.90;;;;;;5010184;28;20218;-67
2022/04/25 08:08:51;;;;;;;14.57;6.65;;;14.00;99.90;;;;;;5011062;28;20239;-69
2022/04/25 08:11:18;;;;;;;10.98;4.22;;;14.40;1.00;;;;;;5009755;28;20207;-67
2022/04/25 08:19:15;;;;;;;8.48;5.13;;;;;;;;;;5009239;28;20218;-67
2022/04/25 08:21:43;;;;;;;10.25;5.57;;;14.50;8.60;;;;;;5010325;28;20258;-66
2022/04/25 08:24:11;;;;;;;6.70;4.50;;;14.00;99.90;;;;;;5007354;28;20196;-69
2022/04/25 08:26:39;;;;;;;5.30;4.70;;;14.60;99.90;;;;;;5008153;28;20285;-71
2022/04/25 08:29:06;;;;;;;10.63;5.18;;;14.60;99.90;;;;;;5002346;28;20287;-72
2022/04/25 08:31:34;;;;;;;9.02;5.40;;;14.70;99.90;;;;;;5005040;28;20209;-75
2022/04/25 08:34:02;;;;;;;9.70;5.50;;;14.80;99.90;;;;;;5009390;28;20690;-68
2022/04/25 08:36:30;;;;;;;6.95;4.85;;;14.80;99.90;;;;;;5008780;28;20262;-68
2022/04/25 08:38:57;;;;;;;9.57;5.55;;;14.70;99.90;;;;;;5008455;28;20207;-69
2022/04/25 08:41:30;;;;;;;8.32;4.82;;;14.70;99.90;;;;;;5003926;28;20250;-71
2022/04/25 08:43:58;;;;;;;7.95;4.72;;;15.40;99.90;;;;;;5008015;28;20759;-76
2022/04/25 08:46:28;;;;;;;7.57;5.18;;;15.70;99.90;;;;;;5004952;28;20258;-72
2022/04/25 08:48:56;;;;;;;9.23;4.45;;;15.50;99.90;;;;;;5008140;28;20240;-67
2022/04/25 08:51:23;;;;;;;14.07;5.85;;;15.70;99.90;;;;;;5012641;28;20282;-68
2022/04/25 08:53:51;;;;;;;7.78;5.22;;;15.60;99.90;;;;;;5013407;28;20208;-69
2022/04/25 08:56:22;;;;;;;6.68;5.05;;;15.10;99.90;;;;;;5011580;28;20682;-69
2022/04/25 08:58:52;;;;;;;12.93;5.43;;;14.70;99.90;;;;;;5004317;28;20584;-68
2022/04/25 09:01:19;;;;;;;6.63;5.05;;;14.50;99.90;;;;;;5012353;28;20205;-68
2022/04/25 09:03:46;;;;;;;9.80;5.25;;;15.10;99.90;;;;;;5011646;28;20212;-68
2022/04/25 09:06:13;;;;;;;10.68;4.72;;;;;;;;;;5001785;28;20271;-70
2022/04/25 09:08:42;;;;;;;8.07;4.75;;;15.00;99.90;;;;;;5004033;28;20777;-68
2022/04/25 09:13:55;;;;;;;9.85;4.97;;;15.60;99.90;;;;;;5005515;28;20203;-68
2022/04/25 09:16:23;;;;;;;9.57;5.00;;;15.70;99.90;;;;;;5011667;28;20200;-68
2022/04/25 09:18:50;;;;;;;10.27;4.03;;;16.10;99.90;;;;;;5013092;28;20262;-68
2022/04/25 09:21:17;;;;;;;11.55;5.68;;;16.50;99.90;;;;;;5012573;28;20668;-69
2022/04/25 09:23:44;;;;;;;22.45;6.15;;;15.90;99.90;;;;;;5013157;28;20204;-68
2022/04/25 09:26:12;;;;;;;9.05;6.32;;;15.80;99.90;;;;;;5012701;28;20251;-69
2022/04/25 09:28:50;;;;;;;7.53;5.25;;;15.70;99.90;;;;;;5012642;28;20235;-71
2022/04/25 09:31:19;;;;;;;6.90;4.63;;;15.20;99.90;;;;;;5012726;28;20730;-72
2022/04/25 09:33:47;;;;;;;15.25;5.20;;;15.00;99.90;;;;;;5009114;28;20200;-70
2022/04/25 09:36:14;;;;;;;8.45;4.32;;;15.00;99.90;;;;;;5004449;28;20212;-68
2022/04/25 09:38:43;;;;;;;7.97;5.13;;;15.20;99.90;;;;;;5004567;28;20279;-70
2022/04/25 09:41:12;;;;;;;10.10;5.88;;;15.40;99.90;;;;;;5011974;28;20738;-68
2022/04/25 09:43:41;;;;;;;10.82;5.28;;;15.40;99.90;;;;;;5012104;28;20212;-70
2022/04/25 09:46:10;;;;;;;9.95;4.55;;;15.40;99.90;;;;;;5012092;28;20204;-68
2022/04/25 09:48:41;;;;;;;9.43;4.93;;;15.50;99.90;;;;;;5012387;28;20227;-69
2022/04/25 09:51:11;;;;;;;11.38;5.97;;;16.00;99.90;;;;;;5012708;28;20223;-68
2022/04/25 09:53:43;;;;;;;8.63;4.85;;;16.20;99.90;;;;;;5011465;28;20208;-68
2022/04/25 09:56:12;;;;;;;6.60;4.30;;;15.90;99.90;;;;;;5002772;28;20212;-75
2022/04/25 09:58:40;;;;;;;6.90;3.58;;;16.10;99.90;;;;;;5002793;28;20208;-71
2022/04/25 10:01:13;;;;;;;6.57;4.70;;;16.90;99.90;;;;;;5004997;28;20211;-68
2022/04/25 10:03:42;;;;;;;6.03;5.18;;;16.80;99.90;;;;;;5006808;28;20208;-73
2022/04/25 10:06:09;;;;;;;5.32;4.60;;;16.50;99.90;;;;;;5002656;28;20687;-68
2022/04/25 10:08:38;;;;;;;6.80;5.63;;;16.00;99.90;;;;;;5001878;28;20287;-69
2022/04/25 10:11:07;;;;;;;8.85;4.95;;;15.90;99.90;;;;;;5011154;28;20208;-70
2022/04/25 10:13:35;;;;;;;6.60;4.80;;;16.00;99.90;;;;;;5005660;28;20207;-73
2022/04/25 10:16:03;;;;;;;9.05;4.97;;;15.90;99.90;;;;;;5003011;28;20232;-76
2022/04/25 10:18:31;;;;;;;7.43;4.82;;;15.60;99.90;;;;;;5011211;28;20665;-68
2022/04/25 10:21:02;;;;;;;7.15;5.35;;;15.90;99.90;;;;;;5005749;28;20236;-69
2022/04/25 10:23:29;;;;;;;7.38;5.05;;;16.30;99.90;;;;;;5010632;28;20216;-76
2022/04/25 10:25:58;;;;;;;7.10;5.05;;;17.00;99.90;;;;;;5010561;28;20204;-69
2022/04/25 10:28:30;;;;;;;6.85;3.72;;;16.80;99.90;;;;;;5003815;28;20294;-73
2022/04/25 10:31:02;;;;;;;4.70;4.28;;;16.60;99.90;;;;;;5009556;28;20215;-74
2022/04/25 10:33:48;;;;;;;10.27;4.20;;;16.20;99.90;;;;;;5006305;28;20287;-70
2022/04/25 10:36:44;;;;;;;9.20;4.75;;;16.10;99.90;;;;;;5004137;28;20584;-69
2022/04/25 10:39:13;;;;;;;5.50;4.00;;;16.30;99.90;;;;;;5004737;28;20295;-70
2022/04/25 10:44:53;;;;;;;6.53;4.45;;;17.20;99.90;;;;;;5002783;28;20212;-70
2022/04/25 10:47:21;;;;;;;7.82;4.63;;;17.00;99.90;;;;;;5006373;28;20286;-70
2022/04/25 10:49:49;;;;;;;7.25;4.63;;;17.50;99.90;;;;;;5010575;28;20640;-70
2022/04/25 10:52:57;;;;;;;6.25;5.20;;;18.10;99.90;;;;;;5007330;28;20212;-71
2022/04/25 10:55:34;;;;;;;5.30;4.80;;;17.40;99.90;;;;;;5010443;28;20214;-69
2022/04/25 10:58:15;;;;;;;7.15;4.43;;;16.70;99.90;;;;;;5011517;28;20232;-71
2022/04/25 11:00:54;;;;;;;8.57;6.05;;;16.50;99.90;;;;;;5009344;28;20676;-71
2022/04/25 11:03:24;;;;;;;5.28;4.43;;;16.30;99.90;;;;;;4999915;28;20258;-69
2022/04/25 11:05:51;;;;;;;8.50;4.20;;;16.10;99.90;;;;;;5002174;28;20219;-69
2022/04/25 11:08:38;;;;;;;6.55;4.45;;;16.60;99.90;;;;;;5002393;28;20204;-71
2022/04/25 11:11:20;;;;;;;5.15;3.78;;;17.30;99.90;;;;;;5009825;28;20259;-71
2022/04/25 11:14:23;;;;;;;6.93;4.10;;;18.20;99.90;;;;;;5008632;28;20281;-75
2022/04/25 11:17:13;;;;;;;4.38;3.67;;;17.30;99.90;;;;;;5010644;28;20208;-76
2022/04/25 11:19:46;;;;;;;11.43;5.00;;;17.00;99.90;;;;;;5010068;28;20208;-72
2022/04/25 11:22:47;;;;;;;9.82;4.68;;;16.40;99.90;;;;;;5009922;28;20287;-69
2022/04/25 11:25:41;;;;;;;5.30;4.03;;;16.30;99.90;;;;;;4998756;28;20216;-75
2022/04/25 11:28:10;;;;;;;7.80;4.40;;;;;;;;;;5008587;28;20207;-68
2022/04/25 11:30:39;;;;;;;5.03;4.10;;;17.40;97.80;;;;;;5010126;28;20211;-69
2022/04/25 11:33:07;;;;;;;8.00;4.63;;;17.20;99.90;;;;;;5002880;28;20205;-68
2022/04/25 11:35:34;;;;;;;8.77;4.82;;;17.20;99.90;;;;;;5011029;28;20619;-70
2022/04/25 11:38:01;;;;;;;16.05;5.88;;;17.40;99.90;;;;;;5010801;28;20254;-70
2022/04/25 11:40:29;;;;;;;4.70;3.45;;;17.50;99.90;;;;;;5009816;28;20242;-69
2022/04/25 11:42:59;;;;;;;6.97;4.03;;;17.30;99.90;;;;;;5002493;28;20212;-70
2022/04/25 11:45:28;;;;;;;9.93;3.65;;;18.10;99.90;;;;;;5009790;28;20286;-68
2022/04/25 11:47:56;;;;;;;3.83;3.03;;;;;;;;;;5010507;28;20204;-71
2022/04/25 11:50:23;;;;;;;6.32;3.58;;;;;;;;;;5009855;28;20790;-69
2022/04/25 11:52:54;;;;;;;7.53;3.75;;;17.90;99.90;;;;;;5010700;28;20678;-73
2022/04/25 11:55:32;;;;;;;7.13;4.20;;;;;;;;;;5002378;28;20200;-74
2022/04/25 11:57:59;;;;;;;5.95;4.10;;;17.60;99.90;;;;;;5010615;28;20200;-75
2022/04/25 12:00:28;;;;;;;9.82;3.75;;;17.50;99.90;;;;;;5010224;28;20216;-70
2022/04/25 12:02:55;;;;;;;7.07;5.50;;;17.70;99.90;;;;;;5007222;28;20201;-71
2022/04/25 12:05:26;;;;;;;7.38;4.50;;;17.90;99.90;;;;;;5005598;28;20215;-71
2022/04/25 12:16:08;;;;;;;9.32;3.15;;;18.10;99.90;;;;;;5002431;28;20712;-69
2022/04/25 12:18:46;;;;;;;6.05;3.63;;;18.50;99.90;;;;;;5002684;28;20254;-71
2022/04/25 12:21:14;;;;;;;5.40;4.72;;;17.60;99.90;;;;;;5008887;28;20204;-72
2022/04/25 12:23:47;;;;;;;9.00;3.63;;;17.30;99.90;;;;;;5003068;28;20588;-69
2022/04/25 12:26:17;;;;;;;5.55;4.32;;;17.20;99.90;;;;;;5013296;28;20622;-73
2022/04/25 12:28:51;;;;;;;8.23;4.93;;;17.70;99.90;;;;;;5014105;28;20204;-72
2022/04/25 12:31:20;;;;;;;4.85;4.35;;;18.00;99.90;;;;;;5012832;28;22080;-70
2022/04/25 12:33:50;;;;;;;10.90;4.22;;;17.80;99.90;;;;;;5014163;28;20246;-71
2022/04/25 12:36:20;;;;;;;7.35;3.53;;;17.60;99.90;;;;;;5013631;28;20671;-71
2022/04/25 12:38:54;;;;;;;4.85;4.10;;;17.70;99.90;;;;;;5014083;28;20211;-71
2022/04/25 12:41:23;;;;;;;4.20;3.40;;;17.90;99.90;;;;;;5005279;28;20205;-69
2022/04/25 12:43:53;;;;;;;8.10;4.53;;;17.70;99.90;;;;;;5014215;28;20250;-69
2022/04/25 12:46:37;;;;;;;4.97;3.38;;;18.00;99.90;;;;;;5013417;28;20303;-73
2022/04/25 12:49:06;;;;;;;5.90;3.72;;;17.90;99.90;;;;;;5014232;28;20695;-69
2022/04/25 12:51:36;;;;;;;7.97;4.55;;;18.20;99.90;;;;;;5005076;28;20573;-71
2022/04/25 12:54:05;;;;;;;12.07;4.20;;;18.70;99.90;;;;;;5013873;28;20203;-71
2022/04/25 12:56:34;;;;;;;5.63;4.97;;;18.30;99.90;;;;;;5013130;28;20200;-70
2022/04/25 12:59:01;;;;;;;3.88;3.45;;;18.20;99.90;;;;;;5013755;28;20209;-69
2022/04/25 13:01:37;;;;;;;8.63;4.88;;;18.10;99.90;;;;;;5012980;28;21047;-71
2022/04/25 13:04:13;;;;;;;11.82;4.00;;;17.80;99.90;;;;;;5014033;28;20208;-69
2022/04/25 13:06:42;;;;;;;6.53;3.60;;;18.30;99.90;;;;;;5013146;28;20215;-76
2022/04/25 13:09:10;;;;;;;9.30;4.05;;;18.30;99.90;;;;;;5012770;28;20657;-73
2022/04/25 13:11:38;;;;;;;9.48;4.93;;;18.30;99.90;;;;;;5005174;28;20213;-72
2022/04/25 13:14:05;;;;;;;7.65;3.42;;;18.00;99.90;;;;;;5005980;28;20611;-73
2022/04/25 13:16:33;;;;;;;4.80;4.00;;;18.30;99.90;;;;;;5013414;28;20204;-69
2022/04/25 13:19:01;;;;;;;5.70;3.80;;;18.60;99.90;;;;;;5013134;28;20205;-74
2022/04/25 13:21:28;;;;;;;6.97;3.88;;;18.30;99.90;;;;;;5012930;28;20204;-70
2022/04/25 13:23:55;;;;;;;6.30;3.40;;;18.40;99.90;;;;;;5012583;28;20624;-72
2022/04/25 13:26:23;;;;;;;7.22;3.38;;;17.90;99.90;;;;;;5009329;28;20208;-71
2022/04/25 13:28:50;;;;;;;3.78;2.70;;;17.50;99.90;;;;;;5009305;28;20205;-70
2022/04/25 13:31:17;;;;;;;5.15;3.88;;;17.80;99.90;;;;;;5009098;28;20291;-75
2022/04/25 13:33:44;;;;;;;7.45;4.22;;;17.90;99.90;;;;;;5007346;28;20208;-69
2022/04/25 13:36:13;;;;;;;5.63;3.63;;;18.10;99.90;;;;;;5012150;28;20750;-69